sensor_id;sensor_type;location;lat;lon;timestamp;P1;durP1;ratioP1;P2;durP2;ratioP2
81229;SDS011;70701;44.452;18.652;2023-06-22T00:00:55;24.75;;;21.15;;
81229;SDS011;70701;44.452;18.652;2023-06-22T00:03:28;23.52;;;21.00;;
81229;SDS011;70701;44.452;18.652;2023-06-22T00:05:55;26.33;;;21.58;;
81229;SDS011;70701;44.452;18.652;2023-06-22T00:08:21;27.00;;;21.42;;
81229;SDS011;70701;44.452;18.652;2023-06-22T00:10:47;25.58;;;21.63;;
81229;SDS011;70701;44.452;18.652;2023-06-22T00:13:13;25.02;;;21.60;;
81229;SDS011;70701;44.452;18.652;2023-06-22T00:15:39;24.27;;;21.77;;
81229;SDS011;70701;44.452;18.652;2023-06-22T00:18:06;24.55;;;21.95;;
81229;SDS011;70701;44.452;18.652;2023-06-22T00:20:33;25.85;;;22.15;;
81229;SDS011;70701;44.452;18.652;2023-06-22T00:23:02;26.05;;;21.95;;
81229;SDS011;70701;44.452;18.652;2023-06-22T00:25:33;26.08;;;23.27;;
81229;SDS011;70701;44.452;18.652;2023-06-22T00:28:02;25.38;;;22.73;;
81229;SDS011;70701;44.452;18.652;2023-06-22T00:30:30;29.92;;;23.40;;
81229;SDS011;70701;44.452;18.652;2023-06-22T00:32:56;31.63;;;24.58;;
81229;SDS011;70701;44.452;18.652;2023-06-22T00:35:22;26.92;;;24.02;;
81229;SDS011;70701;44.452;18.652;2023-06-22T00:37:48;26.83;;;24.08;;
81229;SDS011;70701;44.452;18.652;2023-06-22T00:40:13;30.80;;;24.58;;
81229;SDS011;70701;44.452;18.652;2023-06-22T00:42:40;27.83;;;24.08;;
81229;SDS011;70701;44.452;18.652;2023-06-22T00:45:07;27.50;;;24.60;;
81229;SDS011;70701;44.452;18.652;2023-06-22T00:47:36;33.00;;;24.75;;
81229;SDS011;70701;44.452;18.652;2023-06-22T00:50:03;27.25;;;24.38;;
81229;SDS011;70701;44.452;18.652;2023-06-22T00:52:32;27.55;;;24.00;;
81229;SDS011;70701;44.452;18.652;2023-06-22T00:55:01;26.10;;;22.63;;
81229;SDS011;70701;44.452;18.652;2023-06-22T00:57:27;24.40;;;21.73;;
81229;SDS011;70701;44.452;18.652;2023-06-22T00:59:54;25.35;;;21.77;;
81229;SDS011;70701;44.452;18.652;2023-06-22T01:02:20;24.67;;;22.10;;
81229;SDS011;70701;44.452;18.652;2023-06-22T01:04:46;25.35;;;21.75;;
81229;SDS011;70701;44.452;18.652;2023-06-22T01:10:07;28.38;;;21.80;;
81229;SDS011;70701;44.452;18.652;2023-06-22T01:12:52;32.92;;;23.17;;
81229;SDS011;70701;44.452;18.652;2023-06-22T01:15:33;24.85;;;22.10;;
81229;SDS011;70701;44.452;18.652;2023-06-22T01:18:05;24.35;;;21.80;;
81229;SDS011;70701;44.452;18.652;2023-06-22T01:20:34;24.73;;;20.77;;
81229;SDS011;70701;44.452;18.652;2023-06-22T01:25:43;25.13;;;19.67;;
81229;SDS011;70701;44.452;18.652;2023-06-22T01:30:47;25.80;;;20.92;;
81229;SDS011;70701;44.452;18.652;2023-06-22T01:33:15;23.17;;;20.65;;
81229;SDS011;70701;44.452;18.652;2023-06-22T01:35:43;24.48;;;21.05;;
81229;SDS011;70701;44.452;18.652;2023-06-22T01:38:09;24.60;;;22.13;;
81229;SDS011;70701;44.452;18.652;2023-06-22T01:40:35;26.77;;;23.90;;
81229;SDS011;70701;44.452;18.652;2023-06-22T01:43:02;26.40;;;23.52;;
81229;SDS011;70701;44.452;18.652;2023-06-22T01:45:29;27.98;;;24.83;;
81229;SDS011;70701;44.452;18.652;2023-06-22T01:47:55;29.00;;;25.23;;
81229;SDS011;70701;44.452;18.652;2023-06-22T01:50:21;28.15;;;25.10;;
81229;SDS011;70701;44.452;18.652;2023-06-22T01:52:48;28.83;;;25.13;;
81229;SDS011;70701;44.452;18.652;2023-06-22T01:55:14;30.33;;;24.88;;
81229;SDS011;70701;44.452;18.652;2023-06-22T01:57:39;26.90;;;24.08;;
81229;SDS011;70701;44.452;18.652;2023-06-22T02:00:12;28.83;;;25.80;;
81229;SDS011;70701;44.452;18.652;2023-06-22T02:05:25;26.98;;;24.27;;
81229;SDS011;70701;44.452;18.652;2023-06-22T02:10:30;27.40;;;24.60;;
81229;SDS011;70701;44.452;18.652;2023-06-22T02:12:57;27.40;;;24.63;;
81229;SDS011;70701;44.452;18.652;2023-06-22T02:15:24;27.30;;;24.58;;
81229;SDS011;70701;44.452;18.652;2023-06-22T02:17:53;27.50;;;24.70;;
81229;SDS011;70701;44.452;18.652;2023-06-22T02:20:20;27.65;;;24.73;;
81229;SDS011;70701;44.452;18.652;2023-06-22T02:22:46;33.67;;;25.38;;
81229;SDS011;70701;44.452;18.652;2023-06-22T02:25:14;30.17;;;26.30;;
81229;SDS011;70701;44.452;18.652;2023-06-22T02:27:45;28.38;;;25.55;;
81229;SDS011;70701;44.452;18.652;2023-06-22T02:30:11;28.83;;;25.80;;
81229;SDS011;70701;44.452;18.652;2023-06-22T02:32:38;29.27;;;25.10;;
81229;SDS011;70701;44.452;18.652;2023-06-22T02:35:06;27.52;;;24.63;;
81229;SDS011;70701;44.452;18.652;2023-06-22T02:37:33;29.67;;;26.48;;
81229;SDS011;70701;44.452;18.652;2023-06-22T02:40:01;28.83;;;25.85;;
81229;SDS011;70701;44.452;18.652;2023-06-22T02:42:28;29.25;;;25.77;;
81229;SDS011;70701;44.452;18.652;2023-06-22T02:44:54;30.23;;;27.13;;
81229;SDS011;70701;44.452;18.652;2023-06-22T02:47:19;36.13;;;30.70;;
81229;SDS011;70701;44.452;18.652;2023-06-22T02:49:45;43.47;;;36.17;;
81229;SDS011;70701;44.452;18.652;2023-06-22T02:52:12;41.45;;;36.95;;
81229;SDS011;70701;44.452;18.652;2023-06-22T02:54:38;37.53;;;33.55;;
81229;SDS011;70701;44.452;18.652;2023-06-22T02:57:04;33.67;;;30.30;;
81229;SDS011;70701;44.452;18.652;2023-06-22T02:59:31;39.60;;;35.40;;
81229;SDS011;70701;44.452;18.652;2023-06-22T03:02:03;41.25;;;36.55;;
81229;SDS011;70701;44.452;18.652;2023-06-22T03:04:32;34.50;;;30.85;;
81229;SDS011;70701;44.452;18.652;2023-06-22T03:06:58;35.08;;;31.33;;
81229;SDS011;70701;44.452;18.652;2023-06-22T03:09:27;31.45;;;28.08;;
81229;SDS011;70701;44.452;18.652;2023-06-22T03:11:54;32.50;;;28.98;;
81229;SDS011;70701;44.452;18.652;2023-06-22T03:14:22;33.65;;;30.10;;
81229;SDS011;70701;44.452;18.652;2023-06-22T03:16:50;35.60;;;31.75;;
81229;SDS011;70701;44.452;18.652;2023-06-22T03:19:18;35.80;;;31.95;;
81229;SDS011;70701;44.452;18.652;2023-06-22T03:21:45;36.70;;;32.70;;
81229;SDS011;70701;44.452;18.652;2023-06-22T03:24:10;37.42;;;33.47;;
81229;SDS011;70701;44.452;18.652;2023-06-22T03:26:37;43.75;;;38.10;;
81229;SDS011;70701;44.452;18.652;2023-06-22T03:29:02;39.67;;;35.33;;
81229;SDS011;70701;44.452;18.652;2023-06-22T03:31:29;37.10;;;32.33;;
81229;SDS011;70701;44.452;18.652;2023-06-22T03:33:55;37.03;;;31.92;;
81229;SDS011;70701;44.452;18.652;2023-06-22T03:36:22;35.67;;;32.00;;
81229;SDS011;70701;44.452;18.652;2023-06-22T03:38:49;34.70;;;30.25;;
81229;SDS011;70701;44.452;18.652;2023-06-22T03:41:15;35.60;;;31.73;;
81229;SDS011;70701;44.452;18.652;2023-06-22T03:43:42;35.50;;;31.15;;
81229;SDS011;70701;44.452;18.652;2023-06-22T03:46:08;32.88;;;29.27;;
81229;SDS011;70701;44.452;18.652;2023-06-22T03:48:34;32.15;;;28.85;;
81229;SDS011;70701;44.452;18.652;2023-06-22T03:51:00;36.45;;;29.23;;
81229;SDS011;70701;44.452;18.652;2023-06-22T03:53:28;38.70;;;29.30;;
81229;SDS011;70701;44.452;18.652;2023-06-22T03:55:54;47.92;;;36.72;;
81229;SDS011;70701;44.452;18.652;2023-06-22T03:58:21;37.80;;;30.92;;
81229;SDS011;70701;44.452;18.652;2023-06-22T04:00:50;35.22;;;30.42;;
81229;SDS011;70701;44.452;18.652;2023-06-22T04:03:16;31.50;;;28.25;;
81229;SDS011;70701;44.452;18.652;2023-06-22T04:05:46;31.50;;;28.20;;
81229;SDS011;70701;44.452;18.652;2023-06-22T04:08:12;33.03;;;29.50;;
81229;SDS011;70701;44.452;18.652;2023-06-22T04:10:39;33.03;;;27.65;;
81229;SDS011;70701;44.452;18.652;2023-06-22T04:13:04;32.00;;;27.58;;
81229;SDS011;70701;44.452;18.652;2023-06-22T04:15:30;33.22;;;29.70;;
81229;SDS011;70701;44.452;18.652;2023-06-22T04:17:56;32.72;;;29.15;;
81229;SDS011;70701;44.452;18.652;2023-06-22T04:20:22;36.97;;;30.38;;
81229;SDS011;70701;44.452;18.652;2023-06-22T04:22:51;36.15;;;30.25;;
81229;SDS011;70701;44.452;18.652;2023-06-22T04:25:18;34.33;;;30.58;;
81229;SDS011;70701;44.452;18.652;2023-06-22T04:27:43;33.10;;;29.75;;
81229;SDS011;70701;44.452;18.652;2023-06-22T04:30:10;32.38;;;28.98;;
81229;SDS011;70701;44.452;18.652;2023-06-22T04:32:36;32.78;;;28.40;;
81229;SDS011;70701;44.452;18.652;2023-06-22T04:35:02;33.33;;;29.73;;
81229;SDS011;70701;44.452;18.652;2023-06-22T04:37:32;35.40;;;29.50;;
81229;SDS011;70701;44.452;18.652;2023-06-22T04:39:58;32.58;;;28.38;;
81229;SDS011;70701;44.452;18.652;2023-06-22T04:42:27;30.63;;;27.40;;
81229;SDS011;70701;44.452;18.652;2023-06-22T04:44:52;39.95;;;34.58;;
81229;SDS011;70701;44.452;18.652;2023-06-22T04:47:18;32.17;;;28.40;;
81229;SDS011;70701;44.452;18.652;2023-06-22T04:49:44;33.13;;;29.73;;
81229;SDS011;70701;44.452;18.652;2023-06-22T04:52:11;33.95;;;29.92;;
81229;SDS011;70701;44.452;18.652;2023-06-22T04:54:38;33.75;;;29.05;;
81229;SDS011;70701;44.452;18.652;2023-06-22T04:57:06;37.42;;;33.42;;
81229;SDS011;70701;44.452;18.652;2023-06-22T04:59:36;34.08;;;30.52;;
81229;SDS011;70701;44.452;18.652;2023-06-22T05:02:04;32.00;;;28.05;;
81229;SDS011;70701;44.452;18.652;2023-06-22T05:04:31;30.17;;;26.70;;
81229;SDS011;70701;44.452;18.652;2023-06-22T05:06:58;33.17;;;27.50;;
81229;SDS011;70701;44.452;18.652;2023-06-22T05:09:25;28.92;;;25.92;;
81229;SDS011;70701;44.452;18.652;2023-06-22T05:11:51;27.75;;;24.80;;
81229;SDS011;70701;44.452;18.652;2023-06-22T05:14:17;28.35;;;25.42;;
81229;SDS011;70701;44.452;18.652;2023-06-22T05:16:43;29.75;;;25.65;;
81229;SDS011;70701;44.452;18.652;2023-06-22T05:19:10;32.72;;;27.88;;
81229;SDS011;70701;44.452;18.652;2023-06-22T05:21:36;31.20;;;26.73;;
81229;SDS011;70701;44.452;18.652;2023-06-22T05:24:02;36.10;;;29.15;;
81229;SDS011;70701;44.452;18.652;2023-06-22T05:26:28;29.20;;;26.20;;
81229;SDS011;70701;44.452;18.652;2023-06-22T05:28:55;28.70;;;25.63;;
81229;SDS011;70701;44.452;18.652;2023-06-22T05:31:21;29.33;;;25.70;;
81229;SDS011;70701;44.452;18.652;2023-06-22T05:33:47;28.38;;;25.52;;
81229;SDS011;70701;44.452;18.652;2023-06-22T05:36:15;30.52;;;27.33;;
81229;SDS011;70701;44.452;18.652;2023-06-22T05:38:41;32.25;;;27.45;;
81229;SDS011;70701;44.452;18.652;2023-06-22T05:41:07;29.10;;;26.10;;
81229;SDS011;70701;44.452;18.652;2023-06-22T05:43:33;29.95;;;27.00;;
81229;SDS011;70701;44.452;18.652;2023-06-22T05:45:59;28.88;;;25.88;;
81229;SDS011;70701;44.452;18.652;2023-06-22T05:48:26;28.42;;;25.48;;
81229;SDS011;70701;44.452;18.652;2023-06-22T05:50:52;27.58;;;24.83;;
81229;SDS011;70701;44.452;18.652;2023-06-22T05:53:18;29.33;;;26.33;;
81229;SDS011;70701;44.452;18.652;2023-06-22T05:55:44;28.95;;;25.80;;
81229;SDS011;70701;44.452;18.652;2023-06-22T05:58:10;29.65;;;26.70;;
81229;SDS011;70701;44.452;18.652;2023-06-22T06:00:36;29.15;;;26.15;;
81229;SDS011;70701;44.452;18.652;2023-06-22T06:03:02;25.65;;;22.90;;
81229;SDS011;70701;44.452;18.652;2023-06-22T06:05:34;27.25;;;24.38;;
81229;SDS011;70701;44.452;18.652;2023-06-22T06:08:01;26.85;;;24.00;;
81229;SDS011;70701;44.452;18.652;2023-06-22T06:10:30;24.42;;;22.02;;
81229;SDS011;70701;44.452;18.652;2023-06-22T06:12:56;27.33;;;24.52;;
81229;SDS011;70701;44.452;18.652;2023-06-22T06:15:22;25.95;;;23.30;;
81229;SDS011;70701;44.452;18.652;2023-06-22T06:17:48;27.42;;;24.40;;
81229;SDS011;70701;44.452;18.652;2023-06-22T06:20:15;27.90;;;25.10;;
81229;SDS011;70701;44.452;18.652;2023-06-22T06:22:41;26.52;;;23.60;;
81229;SDS011;70701;44.452;18.652;2023-06-22T06:25:08;28.55;;;25.60;;
81229;SDS011;70701;44.452;18.652;2023-06-22T06:27:34;32.25;;;28.95;;
81229;SDS011;70701;44.452;18.652;2023-06-22T06:29:59;30.95;;;27.70;;
81229;SDS011;70701;44.452;18.652;2023-06-22T06:32:25;29.50;;;26.40;;
81229;SDS011;70701;44.452;18.652;2023-06-22T06:34:50;28.48;;;25.58;;
81229;SDS011;70701;44.452;18.652;2023-06-22T06:37:16;28.35;;;25.65;;
81229;SDS011;70701;44.452;18.652;2023-06-22T06:39:43;25.70;;;23.00;;
81229;SDS011;70701;44.452;18.652;2023-06-22T06:42:09;27.92;;;25.13;;
81229;SDS011;70701;44.452;18.652;2023-06-22T06:44:36;25.15;;;22.70;;
81229;SDS011;70701;44.452;18.652;2023-06-22T06:47:03;26.88;;;24.20;;
81229;SDS011;70701;44.452;18.652;2023-06-22T06:49:29;26.73;;;24.02;;
81229;SDS011;70701;44.452;18.652;2023-06-22T06:51:55;25.00;;;22.63;;
81229;SDS011;70701;44.452;18.652;2023-06-22T06:54:21;26.75;;;23.90;;
81229;SDS011;70701;44.452;18.652;2023-06-22T06:56:47;28.55;;;24.70;;
81229;SDS011;70701;44.452;18.652;2023-06-22T06:59:14;24.65;;;22.15;;
81229;SDS011;70701;44.452;18.652;2023-06-22T07:01:41;25.90;;;23.08;;
81229;SDS011;70701;44.452;18.652;2023-06-22T07:04:07;25.73;;;23.00;;
81229;SDS011;70701;44.452;18.652;2023-06-22T07:06:32;25.40;;;22.83;;
81229;SDS011;70701;44.452;18.652;2023-06-22T07:08:59;24.02;;;21.52;;
81229;SDS011;70701;44.452;18.652;2023-06-22T07:11:26;27.15;;;24.35;;
81229;SDS011;70701;44.452;18.652;2023-06-22T07:13:52;25.63;;;23.13;;
81229;SDS011;70701;44.452;18.652;2023-06-22T07:16:18;24.40;;;21.90;;
81229;SDS011;70701;44.452;18.652;2023-06-22T07:18:44;24.35;;;21.95;;
81229;SDS011;70701;44.452;18.652;2023-06-22T07:21:09;24.90;;;22.38;;
81229;SDS011;70701;44.452;18.652;2023-06-22T07:23:35;25.00;;;22.35;;
81229;SDS011;70701;44.452;18.652;2023-06-22T07:26:02;23.60;;;21.33;;
81229;SDS011;70701;44.452;18.652;2023-06-22T07:28:28;25.65;;;23.10;;
81229;SDS011;70701;44.452;18.652;2023-06-22T07:30:56;25.65;;;23.00;;
81229;SDS011;70701;44.452;18.652;2023-06-22T07:33:22;26.55;;;23.95;;
81229;SDS011;70701;44.452;18.652;2023-06-22T07:35:48;24.83;;;22.17;;
81229;SDS011;70701;44.452;18.652;2023-06-22T07:38:16;24.80;;;22.33;;
81229;SDS011;70701;44.452;18.652;2023-06-22T07:40:41;25.73;;;23.23;;
81229;SDS011;70701;44.452;18.652;2023-06-22T07:43:07;25.90;;;23.17;;
81229;SDS011;70701;44.452;18.652;2023-06-22T07:45:33;26.55;;;23.02;;
81229;SDS011;70701;44.452;18.652;2023-06-22T07:48:00;25.15;;;22.75;;
81229;SDS011;70701;44.452;18.652;2023-06-22T07:50:26;26.83;;;23.45;;
81229;SDS011;70701;44.452;18.652;2023-06-22T07:52:53;25.33;;;22.73;;
81229;SDS011;70701;44.452;18.652;2023-06-22T07:55:18;26.60;;;23.98;;
81229;SDS011;70701;44.452;18.652;2023-06-22T07:57:46;33.30;;;29.63;;
81229;SDS011;70701;44.452;18.652;2023-06-22T08:00:12;32.72;;;29.35;;
81229;SDS011;70701;44.452;18.652;2023-06-22T08:02:42;28.58;;;25.52;;
81229;SDS011;70701;44.452;18.652;2023-06-22T08:05:08;26.00;;;23.35;;
81229;SDS011;70701;44.452;18.652;2023-06-22T08:07:35;24.70;;;22.30;;
81229;SDS011;70701;44.452;18.652;2023-06-22T08:10:03;23.90;;;21.60;;
81229;SDS011;70701;44.452;18.652;2023-06-22T08:12:35;29.93;;;26.70;;
81229;SDS011;70701;44.452;18.652;2023-06-22T08:15:01;29.23;;;26.25;;
81229;SDS011;70701;44.452;18.652;2023-06-22T08:17:26;27.20;;;24.20;;
81229;SDS011;70701;44.452;18.652;2023-06-22T08:19:52;23.88;;;21.35;;
81229;SDS011;70701;44.452;18.652;2023-06-22T08:22:18;24.00;;;21.50;;
81229;SDS011;70701;44.452;18.652;2023-06-22T08:24:44;23.25;;;20.90;;
81229;SDS011;70701;44.452;18.652;2023-06-22T08:27:10;26.17;;;23.63;;
81229;SDS011;70701;44.452;18.652;2023-06-22T08:29:40;25.63;;;22.98;;
81229;SDS011;70701;44.452;18.652;2023-06-22T08:32:10;25.98;;;23.27;;
81229;SDS011;70701;44.452;18.652;2023-06-22T08:34:37;29.15;;;26.08;;
81229;SDS011;70701;44.452;18.652;2023-06-22T08:37:08;24.52;;;22.13;;
81229;SDS011;70701;44.452;18.652;2023-06-22T08:39:34;22.33;;;20.02;;
81229;SDS011;70701;44.452;18.652;2023-06-22T08:42:00;23.80;;;21.38;;
81229;SDS011;70701;44.452;18.652;2023-06-22T08:44:33;23.85;;;21.45;;
81229;SDS011;70701;44.452;18.652;2023-06-22T08:46:58;23.73;;;21.38;;
81229;SDS011;70701;44.452;18.652;2023-06-22T08:49:24;26.13;;;23.23;;
81229;SDS011;70701;44.452;18.652;2023-06-22T08:51:50;22.75;;;20.58;;
81229;SDS011;70701;44.452;18.652;2023-06-22T08:54:18;22.35;;;20.05;;
81229;SDS011;70701;44.452;18.652;2023-06-22T08:56:44;23.08;;;20.65;;
81229;SDS011;70701;44.452;18.652;2023-06-22T08:59:09;22.58;;;20.38;;
81229;SDS011;70701;44.452;18.652;2023-06-22T09:01:35;22.08;;;20.00;;
81229;SDS011;70701;44.452;18.652;2023-06-22T09:04:00;23.75;;;20.63;;
81229;SDS011;70701;44.452;18.652;2023-06-22T09:06:26;22.35;;;20.00;;
81229;SDS011;70701;44.452;18.652;2023-06-22T09:08:52;24.13;;;21.50;;
81229;SDS011;70701;44.452;18.652;2023-06-22T09:11:17;24.13;;;21.77;;
81229;SDS011;70701;44.452;18.652;2023-06-22T09:13:43;24.23;;;21.77;;
81229;SDS011;70701;44.452;18.652;2023-06-22T09:16:09;24.05;;;21.55;;
81229;SDS011;70701;44.452;18.652;2023-06-22T09:18:35;24.85;;;21.10;;
81229;SDS011;70701;44.452;18.652;2023-06-22T09:21:01;23.50;;;20.35;;
81229;SDS011;70701;44.452;18.652;2023-06-22T09:23:27;23.92;;;20.98;;
81229;SDS011;70701;44.452;18.652;2023-06-22T09:25:52;26.65;;;23.85;;
81229;SDS011;70701;44.452;18.652;2023-06-22T09:28:18;26.92;;;24.15;;
81229;SDS011;70701;44.452;18.652;2023-06-22T09:30:44;25.55;;;22.95;;
81229;SDS011;70701;44.452;18.652;2023-06-22T09:33:10;25.20;;;22.65;;
81229;SDS011;70701;44.452;18.652;2023-06-22T09:35:35;24.30;;;21.80;;
81229;SDS011;70701;44.452;18.652;2023-06-22T09:38:01;24.73;;;20.98;;
81229;SDS011;70701;44.452;18.652;2023-06-22T09:40:27;23.05;;;20.63;;
81229;SDS011;70701;44.452;18.652;2023-06-22T09:42:52;26.33;;;21.48;;
81229;SDS011;70701;44.452;18.652;2023-06-22T09:45:18;26.45;;;21.50;;
81229;SDS011;70701;44.452;18.652;2023-06-22T09:47:43;23.80;;;21.42;;
81229;SDS011;70701;44.452;18.652;2023-06-22T09:50:09;23.48;;;21.08;;
81229;SDS011;70701;44.452;18.652;2023-06-22T09:52:35;24.85;;;22.38;;
81229;SDS011;70701;44.452;18.652;2023-06-22T09:55:01;25.63;;;22.83;;
81229;SDS011;70701;44.452;18.652;2023-06-22T09:57:29;26.17;;;23.55;;
81229;SDS011;70701;44.452;18.652;2023-06-22T09:59:55;23.73;;;21.25;;
81229;SDS011;70701;44.452;18.652;2023-06-22T10:02:21;25.40;;;22.65;;
81229;SDS011;70701;44.452;18.652;2023-06-22T10:04:47;24.23;;;21.05;;
81229;SDS011;70701;44.452;18.652;2023-06-22T10:07:13;24.65;;;22.15;;
81229;SDS011;70701;44.452;18.652;2023-06-22T10:09:38;22.85;;;20.65;;
81229;SDS011;70701;44.452;18.652;2023-06-22T10:12:04;22.73;;;20.52;;
81229;SDS011;70701;44.452;18.652;2023-06-22T10:14:30;22.75;;;19.58;;
81229;SDS011;70701;44.452;18.652;2023-06-22T10:16:56;23.42;;;21.00;;
81229;SDS011;70701;44.452;18.652;2023-06-22T10:19:22;30.70;;;27.67;;
81229;SDS011;70701;44.452;18.652;2023-06-22T10:21:47;27.52;;;24.90;;
81229;SDS011;70701;44.452;18.652;2023-06-22T10:24:13;28.50;;;25.45;;
81229;SDS011;70701;44.452;18.652;2023-06-22T10:26:39;33.40;;;30.00;;
81229;SDS011;70701;44.452;18.652;2023-06-22T10:29:04;25.48;;;22.88;;
81229;SDS011;70701;44.452;18.652;2023-06-22T10:31:30;34.40;;;30.50;;
81229;SDS011;70701;44.452;18.652;2023-06-22T10:33:56;38.45;;;34.70;;
81229;SDS011;70701;44.452;18.652;2023-06-22T10:36:22;31.20;;;28.15;;
81229;SDS011;70701;44.452;18.652;2023-06-22T10:38:48;24.05;;;21.70;;
81229;SDS011;70701;44.452;18.652;2023-06-22T10:41:14;23.83;;;21.42;;
81229;SDS011;70701;44.452;18.652;2023-06-22T10:43:40;25.40;;;20.15;;
81229;SDS011;70701;44.452;18.652;2023-06-22T10:46:06;33.28;;;29.75;;
81229;SDS011;70701;44.452;18.652;2023-06-22T10:48:32;29.98;;;26.83;;
81229;SDS011;70701;44.452;18.652;2023-06-22T10:50:58;30.38;;;25.75;;
81229;SDS011;70701;44.452;18.652;2023-06-22T10:53:24;27.10;;;24.20;;
81229;SDS011;70701;44.452;18.652;2023-06-22T10:55:50;27.05;;;21.17;;
81229;SDS011;70701;44.452;18.652;2023-06-22T10:58:17;22.00;;;20.00;;
81229;SDS011;70701;44.452;18.652;2023-06-22T11:00:44;22.85;;;20.30;;
81229;SDS011;70701;44.452;18.652;2023-06-22T11:03:10;22.23;;;19.77;;
81229;SDS011;70701;44.452;18.652;2023-06-22T11:05:36;22.35;;;19.73;;
81229;SDS011;70701;44.452;18.652;2023-06-22T11:08:02;26.00;;;21.88;;
81229;SDS011;70701;44.452;18.652;2023-06-22T11:10:27;25.23;;;20.52;;
81229;SDS011;70701;44.452;18.652;2023-06-22T11:12:53;26.88;;;20.67;;
81229;SDS011;70701;44.452;18.652;2023-06-22T11:15:20;22.70;;;20.27;;
81229;SDS011;70701;44.452;18.652;2023-06-22T11:17:46;23.30;;;19.42;;
81229;SDS011;70701;44.452;18.652;2023-06-22T11:20:12;20.25;;;18.20;;
81229;SDS011;70701;44.452;18.652;2023-06-22T11:22:38;26.30;;;18.77;;
81229;SDS011;70701;44.452;18.652;2023-06-22T11:25:05;24.20;;;18.08;;
81229;SDS011;70701;44.452;18.652;2023-06-22T11:27:33;24.75;;;18.70;;
81229;SDS011;70701;44.452;18.652;2023-06-22T11:30:00;19.75;;;17.83;;
81229;SDS011;70701;44.452;18.652;2023-06-22T11:32:25;18.73;;;16.90;;
81229;SDS011;70701;44.452;18.652;2023-06-22T11:34:51;18.17;;;16.38;;
81229;SDS011;70701;44.452;18.652;2023-06-22T11:37:17;19.40;;;17.48;;
81229;SDS011;70701;44.452;18.652;2023-06-22T11:39:42;18.52;;;16.50;;
81229;SDS011;70701;44.452;18.652;2023-06-22T11:42:09;19.15;;;16.42;;
81229;SDS011;70701;44.452;18.652;2023-06-22T11:44:35;21.13;;;17.33;;
81229;SDS011;70701;44.452;18.652;2023-06-22T11:47:01;19.50;;;17.48;;
81229;SDS011;70701;44.452;18.652;2023-06-22T11:49:29;33.95;;;30.42;;
81229;SDS011;70701;44.452;18.652;2023-06-22T11:51:55;26.60;;;23.92;;
81229;SDS011;70701;44.452;18.652;2023-06-22T11:54:21;24.50;;;22.00;;
81229;SDS011;70701;44.452;18.652;2023-06-22T11:56:47;20.83;;;17.85;;
81229;SDS011;70701;44.452;18.652;2023-06-22T11:59:12;20.35;;;14.63;;
81229;SDS011;70701;44.452;18.652;2023-06-22T12:01:38;17.67;;;15.55;;
81229;SDS011;70701;44.452;18.652;2023-06-22T12:04:04;27.73;;;24.85;;
81229;SDS011;70701;44.452;18.652;2023-06-22T12:06:35;32.55;;;29.02;;
81229;SDS011;70701;44.452;18.652;2023-06-22T12:09:03;26.80;;;23.98;;
81229;SDS011;70701;44.452;18.652;2023-06-22T12:11:32;24.17;;;21.73;;
81229;SDS011;70701;44.452;18.652;2023-06-22T12:13:57;22.95;;;20.58;;
81229;SDS011;70701;44.452;18.652;2023-06-22T12:16:27;19.25;;;17.25;;
81229;SDS011;70701;44.452;18.652;2023-06-22T12:18:53;20.23;;;18.40;;
81229;SDS011;70701;44.452;18.652;2023-06-22T12:21:19;28.42;;;25.48;;
81229;SDS011;70701;44.452;18.652;2023-06-22T12:23:44;29.40;;;26.40;;
81229;SDS011;70701;44.452;18.652;2023-06-22T12:26:10;29.10;;;25.35;;
81229;SDS011;70701;44.452;18.652;2023-06-22T12:28:36;26.30;;;23.48;;
81229;SDS011;70701;44.452;18.652;2023-06-22T12:31:01;23.73;;;21.42;;
81229;SDS011;70701;44.452;18.652;2023-06-22T12:33:27;23.10;;;20.88;;
81229;SDS011;70701;44.452;18.652;2023-06-22T12:35:53;22.95;;;20.50;;
81229;SDS011;70701;44.452;18.652;2023-06-22T12:38:18;22.70;;;18.90;;
81229;SDS011;70701;44.452;18.652;2023-06-22T12:40:44;22.00;;;19.75;;
81229;SDS011;70701;44.452;18.652;2023-06-22T12:43:12;21.65;;;19.48;;
81229;SDS011;70701;44.452;18.652;2023-06-22T12:45:37;22.15;;;19.15;;
81229;SDS011;70701;44.452;18.652;2023-06-22T12:48:04;22.30;;;20.00;;
81229;SDS011;70701;44.452;18.652;2023-06-22T12:50:30;21.60;;;18.92;;
81229;SDS011;70701;44.452;18.652;2023-06-22T12:52:55;22.77;;;20.48;;
81229;SDS011;70701;44.452;18.652;2023-06-22T12:55:21;22.90;;;20.50;;
81229;SDS011;70701;44.452;18.652;2023-06-22T12:57:46;23.17;;;20.77;;
81229;SDS011;70701;44.452;18.652;2023-06-22T13:00:12;22.08;;;18.58;;
81229;SDS011;70701;44.452;18.652;2023-06-22T13:02:38;21.20;;;17.80;;
81229;SDS011;70701;44.452;18.652;2023-06-22T13:05:07;21.30;;;19.10;;
81229;SDS011;70701;44.452;18.652;2023-06-22T13:07:39;22.15;;;19.95;;
81229;SDS011;70701;44.452;18.652;2023-06-22T13:10:05;21.52;;;19.42;;
81229;SDS011;70701;44.452;18.652;2023-06-22T13:12:31;24.17;;;20.40;;
81229;SDS011;70701;44.452;18.652;2023-06-22T13:14:57;21.35;;;19.30;;
81229;SDS011;70701;44.452;18.652;2023-06-22T13:17:22;20.45;;;18.45;;
81229;SDS011;70701;44.452;18.652;2023-06-22T13:19:48;20.75;;;18.73;;
81229;SDS011;70701;44.452;18.652;2023-06-22T13:22:26;20.45;;;17.63;;
81229;SDS011;70701;44.452;18.652;2023-06-22T13:24:56;21.37;;;19.27;;
81229;SDS011;70701;44.452;18.652;2023-06-22T13:27:23;21.63;;;19.48;;
81229;SDS011;70701;44.452;18.652;2023-06-22T13:29:49;20.75;;;18.65;;
81229;SDS011;70701;44.452;18.652;2023-06-22T13:32:14;21.08;;;18.90;;
81229;SDS011;70701;44.452;18.652;2023-06-22T13:34:40;23.02;;;18.23;;
81229;SDS011;70701;44.452;18.652;2023-06-22T13:37:07;24.77;;;18.88;;
81229;SDS011;70701;44.452;18.652;2023-06-22T13:39:32;20.92;;;17.77;;
81229;SDS011;70701;44.452;18.652;2023-06-22T13:41:58;22.10;;;19.90;;
81229;SDS011;70701;44.452;18.652;2023-06-22T13:44:24;23.80;;;21.35;;
81229;SDS011;70701;44.452;18.652;2023-06-22T13:46:54;22.95;;;20.67;;
81229;SDS011;70701;44.452;18.652;2023-06-22T13:49:20;25.60;;;20.77;;
81229;SDS011;70701;44.452;18.652;2023-06-22T13:51:47;22.13;;;19.52;;
81229;SDS011;70701;44.452;18.652;2023-06-22T13:54:16;23.38;;;21.13;;
81229;SDS011;70701;44.452;18.652;2023-06-22T13:56:42;24.70;;;22.30;;
81229;SDS011;70701;44.452;18.652;2023-06-22T13:59:08;24.02;;;21.73;;
81229;SDS011;70701;44.452;18.652;2023-06-22T14:01:37;25.00;;;22.50;;
81229;SDS011;70701;44.452;18.652;2023-06-22T14:04:07;23.42;;;21.27;;
81229;SDS011;70701;44.452;18.652;2023-06-22T14:06:32;24.88;;;22.35;;
81229;SDS011;70701;44.452;18.652;2023-06-22T14:08:58;24.33;;;22.05;;
81229;SDS011;70701;44.452;18.652;2023-06-22T14:11:24;25.23;;;22.67;;
81229;SDS011;70701;44.452;18.652;2023-06-22T14:13:50;25.25;;;22.60;;
81229;SDS011;70701;44.452;18.652;2023-06-22T14:16:16;23.48;;;20.95;;
81229;SDS011;70701;44.452;18.652;2023-06-22T14:18:42;21.98;;;19.52;;